Airfield :
LOGIN :

Register | Disclaimer

   EN    FR    IT 

 










Legend :    VFR   Marginal VFR   IFR   Intensive IFR   Very Intensive IFR
Visi :
Ceiling :
>= 8 km
>= 3000ft
5 to 8 km
1000 to 3000 ft
1500m to 5 km
500 to 1000 ft
800 to 1500m
200 to 500 ft
< 800m
< 200 ft
Symbols :   Thunderstorms  Fog  Heavy snow  Heavy precipitations  Wind > 20 kt
SIGMETs :     Misc.  Thunderstorms  Icing  Turbulence  Mountain Waves  Volcanic Ashes






- Airport Elevation : 764 ft
- IATA code : YEI


LTBR - Yenisehir AB

CURRENT METAR :
  • 021120Z VRB02KT 9999 -SHRA SCT030 BKN090 13/10 Q1006 NOSIG RMK RWY07 01003KT 340V050

EXPIRED METARs :
  • 021050Z 08012KT 9999 -SHRA SCT030 BKN090 14/08 Q1006 NOSIG RMK RWY07 07010KT
  • 021020Z 04011KT 9999 SCT030 BKN090 15/08 Q1006 NOSIG RMK RWY07 07011KT
  • 020950Z 06016KT 9999 SCT030 BKN090 17/08 Q1006 NOSIG RMK RWY07 07014KT
  • 020920Z 06015KT 9999 SCT030 BKN090 16/08 Q1007 NOSIG RMK RWY07 06013KT
  • 020850Z 05014KT 9999 SCT030 BKN090 15/08 Q1007 NOSIG RMK RWY07 06014KT 020V080

TAF TAF LTBR
Valid from the 02 at 12:00 until the 03 at 12:00 UTC


021040Z 0212/0312 08012KT 9999 -SHRA BKN025 BKN080
TEMPO 0213/0215 SHRA FEW027CB BKN030
BECMG 0215/0218 VRB02KT SCT035 BKN100
PROB30 0302/0306 4000 BR



MET'MAP, your aeronautical weather chart ! - Copyright ORBIFLY December 2007 - Disclaimer

ORBIFLY MET'MAP TEAM :

Programming & Development : Alexandra Zaïnal
Concept & original design : Baudouin d'Aumeries
Assistance for programming : Marc-Olivier Méhu
Technical & hardware support : Manuel Goepfert

Contact : metmap@orbifly.com




SOURCES & CREDITS :

   NOAA